createdAt,value
2023-06-07T00:00:42.511Z,16.30
2023-06-07T00:03:10.863Z,16.14
2023-06-07T00:05:38.473Z,16.30
2023-06-07T00:08:05.388Z,16.20
2023-06-07T00:10:33.182Z,16.21
2023-06-07T00:13:00.052Z,16.26
2023-06-07T00:15:26.779Z,16.20
2023-06-07T00:17:54.103Z,16.25
2023-06-07T00:20:20.790Z,16.10
2023-06-07T00:22:48.603Z,16.15
2023-06-07T00:25:15.262Z,16.25
2023-06-07T00:27:41.792Z,16.24
2023-06-07T00:30:09.005Z,16.07
2023-06-07T00:32:35.503Z,16.20
2023-06-07T00:35:02.003Z,16.19
2023-06-07T00:37:28.517Z,16.15
2023-06-07T00:39:54.962Z,16.24
2023-06-07T00:42:21.489Z,16.23
2023-06-07T00:44:48.054Z,16.14
2023-06-07T00:47:15.348Z,16.15
2023-06-07T00:49:44.090Z,16.01
2023-06-07T00:52:11.148Z,16.00
2023-06-07T00:54:38.410Z,15.98
2023-06-07T00:57:06.585Z,15.84
2023-06-07T00:59:33.260Z,15.88
2023-06-07T01:02:02.339Z,15.77
2023-06-07T01:04:30.328Z,15.81
2023-06-07T01:06:57.057Z,15.80
2023-06-07T01:09:24.706Z,15.70
2023-06-07T01:11:53.270Z,15.66
2023-06-07T01:14:21.168Z,15.62
2023-06-07T01:45:50.611Z,14.83
2023-06-07T01:49:05.890Z,14.84
2023-06-07T01:57:09.325Z,15.30
2023-06-07T02:00:00.174Z,15.27
2023-06-07T02:02:43.564Z,15.24
2023-06-07T02:08:29.686Z,15.12
2023-06-07T02:10:57.463Z,15.12
2023-06-07T02:14:40.805Z,15.06
2023-06-07T02:18:21.144Z,15.07
2023-06-07T02:24:12.910Z,14.74
2023-06-07T02:52:18.223Z,14.74
2023-06-07T02:54:44.697Z,14.72
2023-06-07T02:57:11.190Z,14.71
2023-06-07T02:59:40.549Z,14.68
2023-06-07T03:02:07.958Z,14.40
2023-06-07T03:04:34.960Z,14.75
2023-06-07T03:07:01.431Z,14.70
2023-06-07T03:09:27.968Z,14.72
2023-06-07T03:11:54.407Z,14.70
2023-06-07T03:14:20.924Z,14.69
2023-06-07T03:16:48.967Z,14.37
2023-06-07T03:19:15.860Z,14.59
2023-06-07T03:21:45.772Z,14.54
2023-06-07T03:24:14.170Z,14.60
2023-06-07T03:32:08.286Z,14.51
2023-06-07T03:37:10.237Z,14.58
2023-06-07T03:39:37.748Z,14.45
2023-06-07T03:42:04.535Z,14.28
2023-06-07T03:44:31.039Z,14.37
2023-06-07T03:46:57.663Z,13.97
2023-06-07T03:49:24.215Z,13.78
2023-06-07T03:52:53.733Z,14.19
2023-06-07T03:56:34.050Z,14.01
2023-06-07T04:07:31.276Z,13.98
2023-06-07T04:10:00.723Z,13.95
2023-06-07T04:17:44.357Z,14.10
2023-06-07T04:20:12.026Z,14.24
2023-06-07T04:22:38.763Z,14.22
2023-06-07T04:25:05.882Z,14.27
2023-06-07T04:27:32.388Z,14.31
2023-06-07T04:30:03.186Z,14.23
2023-06-07T04:32:30.211Z,14.13
2023-06-07T04:34:57.265Z,14.14
2023-06-07T04:37:25.923Z,14.13
2023-06-07T04:39:52.755Z,14.20
2023-06-07T04:42:19.367Z,14.26
2023-06-07T04:44:46.240Z,14.29
2023-06-07T04:47:14.953Z,14.35
2023-06-07T04:49:42.093Z,14.44
2023-06-07T04:52:09.086Z,14.43
2023-06-07T04:54:37.496Z,14.45
2023-06-07T04:57:04.864Z,14.40
2023-06-07T04:59:36.005Z,14.35
2023-06-07T05:02:03.365Z,14.23
2023-06-07T05:04:32.041Z,14.10
2023-06-07T05:23:07.555Z,14.31
2023-06-07T05:31:07.266Z,14.20
2023-06-07T05:33:38.226Z,14.40
2023-06-07T05:36:05.088Z,14.52
2023-06-07T05:38:31.569Z,14.65
2023-06-07T05:40:58.024Z,14.65
2023-06-07T05:43:24.574Z,14.67
2023-06-07T05:45:51.022Z,14.82
2023-06-07T05:48:18.441Z,14.85
2023-06-07T05:50:45.120Z,14.96
2023-06-07T05:53:11.641Z,15.15
2023-06-07T05:55:38.197Z,15.19
2023-06-07T05:58:04.842Z,15.28
2023-06-07T06:00:32.876Z,15.23
2023-06-07T06:03:02.243Z,15.27
2023-06-07T06:05:29.592Z,15.24
2023-06-07T06:07:59.665Z,15.28
2023-06-07T06:10:26.877Z,15.24
2023-06-07T06:12:53.471Z,15.08
2023-06-07T06:15:20.177Z,15.04
2023-06-07T06:17:46.720Z,15.00
2023-06-07T06:20:13.676Z,14.91
2023-06-07T06:22:40.349Z,14.96
2023-06-07T06:25:07.165Z,14.88
2023-06-07T06:27:33.673Z,14.79
2023-06-07T06:30:00.182Z,14.81
2023-06-07T06:32:26.850Z,14.80
2023-06-07T06:34:53.337Z,14.90
2023-06-07T06:37:19.774Z,14.88
2023-06-07T06:39:48.354Z,14.91
2023-06-07T06:42:14.916Z,15.01
2023-06-07T06:44:41.511Z,15.23
2023-06-07T06:47:08.056Z,15.20
2023-06-07T06:49:34.539Z,15.29
2023-06-07T06:52:01.068Z,15.22
2023-06-07T06:54:27.633Z,15.36
2023-06-07T06:56:54.636Z,15.43
2023-06-07T06:59:22.323Z,15.44
2023-06-07T07:01:49.809Z,15.62
2023-06-07T07:04:17.429Z,15.66
2023-06-07T07:06:44.596Z,15.72
2023-06-07T07:09:11.938Z,15.75
2023-06-07T07:11:38.493Z,15.88
2023-06-07T07:14:05.291Z,16.02
2023-06-07T07:16:32.366Z,16.08
2023-06-07T07:18:59.217Z,16.08
2023-06-07T07:21:30.229Z,15.97
2023-06-07T07:23:56.768Z,15.95
2023-06-07T07:26:23.407Z,16.10
2023-06-07T07:28:50.070Z,16.03
2023-06-07T07:31:16.638Z,16.09
2023-06-07T07:33:43.537Z,16.00
2023-06-07T07:36:10.776Z,15.92
2023-06-07T07:38:38.583Z,15.88
2023-06-07T07:41:08.288Z,15.94
2023-06-07T07:43:37.747Z,16.04
2023-06-07T07:46:05.007Z,16.07
2023-06-07T07:48:31.712Z,16.04
2023-06-07T07:50:58.260Z,16.08
2023-06-07T07:53:24.795Z,16.09
2023-06-07T07:55:51.650Z,16.03
2023-06-07T07:58:18.246Z,16.03
2023-06-07T08:00:44.939Z,16.04
2023-06-07T08:03:11.583Z,16.12
2023-06-07T08:05:38.292Z,16.10
2023-06-07T08:08:05.061Z,16.17
2023-06-07T08:10:31.604Z,16.19
2023-06-07T08:12:58.148Z,16.27
2023-06-07T08:15:24.630Z,16.38
2023-06-07T08:17:51.775Z,16.57
2023-06-07T08:20:18.851Z,16.73
2023-06-07T08:22:45.487Z,16.84
2023-06-07T08:25:13.314Z,16.98
2023-06-07T08:27:39.779Z,16.98
2023-06-07T08:30:07.591Z,17.09
2023-06-07T08:32:34.749Z,17.17
2023-06-07T08:35:01.498Z,17.36
2023-06-07T08:37:27.996Z,17.61
2023-06-07T08:39:54.441Z,17.76
2023-06-07T08:42:20.912Z,17.70
2023-06-07T08:44:47.598Z,17.78
2023-06-07T08:47:14.684Z,17.77
2023-06-07T08:49:43.341Z,17.76
2023-06-07T08:52:16.214Z,17.99
2023-06-07T08:54:44.832Z,18.20
2023-06-07T08:57:15.242Z,18.34
2023-06-07T08:59:44.934Z,18.66
2023-06-07T09:02:13.229Z,19.03
2023-06-07T09:04:43.425Z,19.39
2023-06-07T09:07:10.826Z,19.52
2023-06-07T09:09:37.564Z,19.60
2023-06-07T09:12:04.632Z,19.43
2023-06-07T09:14:31.118Z,19.42
2023-06-07T09:16:59.954Z,19.39
2023-06-07T09:19:36.039Z,19.50
2023-06-07T09:22:04.457Z,19.46
2023-06-07T09:24:31.686Z,19.48
2023-06-07T09:26:59.272Z,19.57
2023-06-07T09:29:28.650Z,19.55
2023-06-07T09:31:56.630Z,19.38
2023-06-07T09:34:27.906Z,19.24
2023-06-07T09:36:56.257Z,19.11
2023-06-07T09:39:25.102Z,19.13
2023-06-07T09:41:56.527Z,19.12
2023-06-07T09:44:27.908Z,19.12
2023-06-07T09:46:55.456Z,19.23
2023-06-07T09:49:37.043Z,19.28
2023-06-07T09:52:05.196Z,19.30
2023-06-07T09:54:42.742Z,19.90
2023-06-07T09:57:11.236Z,20.23
2023-06-07T09:59:39.051Z,20.84
2023-06-07T10:02:26.447Z,20.88
2023-06-07T10:04:58.343Z,21.56
2023-06-07T10:07:28.610Z,22.03
2023-06-07T10:09:58.992Z,21.95
2023-06-07T10:12:32.452Z,21.73
2023-06-07T10:15:09.164Z,22.46
2023-06-07T10:18:13.602Z,23.79
2023-06-07T10:20:44.794Z,24.64
2023-06-07T10:23:22.698Z,25.27
2023-06-07T10:25:59.341Z,25.26
2023-06-07T10:28:44.278Z,26.08
2023-06-07T10:31:13.849Z,27.28
2023-06-07T10:33:41.874Z,27.88
2023-06-07T10:36:10.186Z,28.72
2023-06-07T10:38:37.277Z,29.37
2023-06-07T10:41:05.757Z,29.63
2023-06-07T10:43:33.620Z,30.00
2023-06-07T10:46:20.564Z,29.88
2023-06-07T10:48:47.865Z,28.91
2023-06-07T10:51:14.922Z,28.13
2023-06-07T10:53:52.544Z,27.26
2023-06-07T10:56:39.615Z,26.01
2023-06-07T10:59:21.436Z,25.38
2023-06-07T11:01:50.388Z,25.10
2023-06-07T11:04:32.631Z,25.11
2023-06-07T11:07:21.110Z,24.87
2023-06-07T11:09:52.187Z,24.63
2023-06-07T11:12:42.423Z,24.57
2023-06-07T11:15:18.110Z,24.34
2023-06-07T11:17:57.835Z,24.14
2023-06-07T11:21:00.340Z,24.00
2023-06-07T11:23:29.045Z,23.93
2023-06-07T11:26:00.125Z,23.77
2023-06-07T11:28:28.695Z,23.61
2023-06-07T11:30:57.164Z,23.68
2023-06-07T11:33:30.289Z,23.99
2023-06-07T11:36:00.658Z,23.98
2023-06-07T11:38:27.973Z,24.34
2023-06-07T11:40:55.102Z,24.41
2023-06-07T11:43:24.205Z,24.48
2023-06-07T11:45:51.918Z,24.64
2023-06-07T11:48:18.929Z,24.81
2023-06-07T11:50:45.775Z,25.11
2023-06-07T11:53:13.790Z,25.24
2023-06-07T11:55:40.901Z,25.79
2023-06-07T11:58:08.748Z,26.06
2023-06-07T12:00:38.773Z,27.05
2023-06-07T12:03:07.218Z,28.54
2023-06-07T12:05:36.010Z,29.53
2023-06-07T12:08:05.505Z,29.82
2023-06-07T12:10:39.136Z,29.82
2023-06-07T12:13:10.617Z,30.65
2023-06-07T12:15:53.601Z,31.29
2023-06-07T12:18:23.839Z,31.69
2023-06-07T12:21:04.329Z,32.43
2023-06-07T12:23:31.377Z,33.14
2023-06-07T12:26:11.465Z,31.81
2023-06-07T12:28:40.022Z,31.02
2023-06-07T12:31:23.587Z,31.44
2023-06-07T12:33:57.910Z,31.96
2023-06-07T12:36:31.684Z,32.10
2023-06-07T12:39:10.381Z,32.01
2023-06-07T12:41:43.389Z,30.89
2023-06-07T12:44:11.401Z,29.69
2023-06-07T12:46:38.214Z,28.96
2023-06-07T12:49:05.248Z,28.19
2023-06-07T12:51:33.014Z,27.93
2023-06-07T12:53:59.757Z,27.66
2023-06-07T12:56:29.175Z,27.65
2023-06-07T12:58:55.649Z,27.60
2023-06-07T13:01:22.788Z,27.74
2023-06-07T13:03:49.522Z,27.90
2023-06-07T13:06:19.437Z,28.09
2023-06-07T13:08:45.938Z,27.72
2023-06-07T13:11:12.606Z,27.49
2023-06-07T13:13:39.268Z,27.60
2023-06-07T13:16:09.027Z,28.31
2023-06-07T13:18:39.916Z,28.53
2023-06-07T13:21:07.125Z,29.68
2023-06-07T13:23:34.403Z,30.71
2023-06-07T13:26:03.062Z,32.00
2023-06-07T13:28:29.793Z,32.57
2023-06-07T13:30:56.887Z,33.14
2023-06-07T13:33:23.577Z,33.76
2023-06-07T13:35:50.253Z,33.55
2023-06-07T13:38:16.799Z,33.23
2023-06-07T13:40:43.664Z,33.46
2023-06-07T13:43:10.185Z,33.64
2023-06-07T13:45:37.314Z,34.04
2023-06-07T13:48:04.127Z,34.33
2023-06-07T13:50:31.488Z,34.36
2023-06-07T13:52:58.111Z,34.62
2023-06-07T13:55:25.058Z,34.99
2023-06-07T13:57:53.256Z,34.86
2023-06-07T14:00:20.266Z,33.87
2023-06-07T14:02:47.809Z,33.23
2023-06-07T14:05:14.680Z,33.31
2023-06-07T14:07:41.987Z,33.66
2023-06-07T14:10:09.512Z,34.57
2023-06-07T14:12:36.075Z,34.48
2023-06-07T14:15:02.622Z,33.53
2023-06-07T14:17:29.107Z,33.00
2023-06-07T14:19:55.596Z,32.71
2023-06-07T14:22:22.088Z,34.12
2023-06-07T14:24:48.620Z,34.90
2023-06-07T14:27:16.004Z,35.60
2023-06-07T14:29:42.817Z,34.95
2023-06-07T14:32:09.866Z,34.01
2023-06-07T14:34:36.343Z,34.01
2023-06-07T14:37:03.010Z,32.69
2023-06-07T14:39:29.672Z,32.12
2023-06-07T14:41:56.662Z,32.12
2023-06-07T14:44:24.937Z,31.32
2023-06-07T14:46:51.582Z,30.79
2023-06-07T14:49:18.139Z,29.96
2023-06-07T14:51:48.771Z,29.42
2023-06-07T14:54:15.862Z,29.36
2023-06-07T14:56:42.388Z,29.36
2023-06-07T14:59:08.984Z,29.23
2023-06-07T15:01:35.576Z,28.84
2023-06-07T15:04:02.200Z,28.79
2023-06-07T15:06:28.885Z,28.77
2023-06-07T15:08:55.547Z,28.45
2023-06-07T15:11:22.063Z,28.29
2023-06-07T15:13:49.254Z,28.17
2023-06-07T15:16:15.903Z,28.09
2023-06-07T15:18:42.618Z,27.66
2023-06-07T15:21:09.160Z,27.31
2023-06-07T15:23:37.803Z,27.36
2023-06-07T15:26:04.505Z,27.25
2023-06-07T15:28:30.993Z,26.87
2023-06-07T15:30:57.593Z,26.78
2023-06-07T15:33:24.260Z,28.06
2023-06-07T15:35:51.004Z,28.51
2023-06-07T15:38:17.575Z,28.33
2023-06-07T15:40:44.307Z,27.73
2023-06-07T15:43:11.425Z,27.42
2023-06-07T15:45:38.058Z,27.18
2023-06-07T15:48:04.999Z,26.98
2023-06-07T15:50:32.478Z,26.93
2023-06-07T15:53:04.641Z,27.00
2023-06-07T15:55:32.690Z,27.12
2023-06-07T15:57:59.854Z,27.13
2023-06-07T16:00:37.602Z,26.97
2023-06-07T16:03:06.224Z,26.74
2023-06-07T16:05:32.878Z,26.44
2023-06-07T16:08:04.507Z,26.46
2023-06-07T16:10:31.730Z,26.65
2023-06-07T16:12:58.518Z,28.37
2023-06-07T16:15:27.312Z,29.55
2023-06-07T16:17:54.256Z,30.68
2023-06-07T16:20:21.502Z,31.42
2023-06-07T16:22:48.775Z,32.30
2023-06-07T16:25:15.407Z,32.68
2023-06-07T16:27:41.916Z,33.06
2023-06-07T16:30:09.020Z,33.41
2023-06-07T16:32:35.718Z,33.73
2023-06-07T16:35:02.217Z,33.00
2023-06-07T16:37:28.753Z,32.42
2023-06-07T16:39:55.267Z,32.56
2023-06-07T16:42:21.827Z,31.48
2023-06-07T16:44:48.411Z,31.71
2023-06-07T16:47:14.942Z,32.20
2023-06-07T16:49:44.159Z,32.40
2023-06-07T16:52:14.288Z,31.57
2023-06-07T16:54:41.256Z,31.06
2023-06-07T16:57:07.779Z,31.28
2023-06-07T16:59:34.236Z,31.08
2023-06-07T17:02:01.323Z,30.85
2023-06-07T17:04:27.953Z,29.78
2023-06-07T17:06:54.463Z,29.17
2023-06-07T17:09:21.148Z,28.85
2023-06-07T17:11:47.683Z,28.30
2023-06-07T17:14:15.053Z,27.69
2023-06-07T17:16:43.489Z,27.25
2023-06-07T17:19:10.397Z,27.69
2023-06-07T17:21:37.701Z,27.93
2023-06-07T17:24:04.352Z,28.68
2023-06-07T17:26:30.993Z,29.04
2023-06-07T17:28:57.490Z,29.17
2023-06-07T17:31:24.163Z,29.14
2023-06-07T17:33:50.659Z,29.13
2023-06-07T17:36:18.245Z,29.08
2023-06-07T17:38:46.134Z,29.27
2023-06-07T17:41:13.666Z,29.29
2023-06-07T17:43:40.143Z,29.61
2023-06-07T17:46:08.529Z,29.72
2023-06-07T17:48:35.444Z,29.04
2023-06-07T17:51:02.749Z,28.41
2023-06-07T17:53:29.251Z,27.79
2023-06-07T17:55:55.800Z,27.70
2023-06-07T17:58:22.509Z,27.84
2023-06-07T18:00:49.021Z,27.49
2023-06-07T18:03:19.585Z,27.63
2023-06-07T18:05:46.215Z,27.80
2023-06-07T18:08:12.996Z,28.21
2023-06-07T18:10:39.569Z,28.54
2023-06-07T18:13:06.123Z,28.71
2023-06-07T18:15:34.118Z,28.70
2023-06-07T18:18:00.723Z,27.87
2023-06-07T18:20:27.198Z,27.26
2023-06-07T18:22:53.701Z,26.80
2023-06-07T18:25:22.321Z,26.26
2023-06-07T18:27:49.205Z,25.79
2023-06-07T18:30:16.214Z,25.31
2023-06-07T18:32:43.393Z,24.98
2023-06-07T18:35:10.638Z,24.62
2023-06-07T18:37:37.268Z,24.27
2023-06-07T18:40:05.902Z,24.03
2023-06-07T18:42:32.957Z,23.78
2023-06-07T18:44:59.723Z,23.43
2023-06-07T18:47:26.714Z,23.42
2023-06-07T18:49:53.454Z,23.17
2023-06-07T18:52:20.688Z,23.04
2023-06-07T18:54:50.251Z,22.84
2023-06-07T18:57:17.030Z,22.88
2023-06-07T18:59:43.577Z,22.88
2023-06-07T19:02:11.360Z,22.81
2023-06-07T19:04:38.288Z,22.77
2023-06-07T19:07:06.011Z,22.58
2023-06-07T19:09:32.797Z,22.67
2023-06-07T19:12:00.141Z,22.58
2023-06-07T19:14:27.210Z,22.58
2023-06-07T19:16:53.866Z,22.57
2023-06-07T19:19:21.592Z,22.50
2023-06-07T19:21:48.291Z,22.50
2023-06-07T19:24:16.156Z,22.48
2023-06-07T19:26:43.004Z,22.43
2023-06-07T19:29:09.627Z,22.39
2023-06-07T19:31:36.476Z,22.33
2023-06-07T19:34:06.480Z,22.36
2023-06-07T19:36:33.092Z,22.27
2023-06-07T19:38:59.712Z,22.31
2023-06-07T19:41:27.915Z,22.22
2023-06-07T19:43:54.903Z,22.02
2023-06-07T19:46:21.534Z,22.15
2023-06-07T19:48:48.094Z,22.17
2023-06-07T19:51:14.715Z,22.04
2023-06-07T19:53:41.254Z,21.97
2023-06-07T19:56:08.017Z,21.91
2023-06-07T19:58:35.455Z,21.79
2023-06-07T20:01:02.225Z,21.61
2023-06-07T20:03:28.820Z,21.62
2023-06-07T20:05:55.328Z,21.42
2023-06-07T20:08:21.783Z,21.45
2023-06-07T20:10:48.340Z,21.30
2023-06-07T20:13:18.268Z,21.21
2023-06-07T20:15:45.755Z,21.02
2023-06-07T20:18:12.708Z,20.86
2023-06-07T20:20:39.281Z,20.67
2023-06-07T20:23:06.630Z,20.48
2023-06-07T20:25:35.643Z,20.29
2023-06-07T20:28:02.187Z,20.14
2023-06-07T20:30:28.898Z,20.04
2023-06-07T20:32:55.472Z,19.89
2023-06-07T20:35:22.171Z,19.89
2023-06-07T20:37:49.851Z,19.83
2023-06-07T20:40:16.399Z,19.69
2023-06-07T20:42:42.898Z,19.50
2023-06-07T20:45:09.918Z,19.54
2023-06-07T20:47:36.479Z,19.48
2023-06-07T20:50:03.083Z,19.39
2023-06-07T20:52:29.835Z,19.25
2023-06-07T20:54:56.460Z,19.25
2023-06-07T20:57:23.005Z,19.22
2023-06-07T20:59:49.676Z,19.06
2023-06-07T21:02:16.359Z,19.04
2023-06-07T21:04:42.924Z,19.03
2023-06-07T21:07:09.486Z,18.95
2023-06-07T21:09:36.119Z,18.91
2023-06-07T21:12:02.790Z,18.80
2023-06-07T21:14:29.278Z,18.81
2023-06-07T21:16:56.076Z,18.73
2023-06-07T21:19:22.653Z,18.71
2023-06-07T21:21:49.179Z,18.63
2023-06-07T21:24:15.977Z,18.61
2023-06-07T21:26:43.818Z,18.50
2023-06-07T21:29:10.308Z,18.42
2023-06-07T21:31:38.475Z,18.33
2023-06-07T21:34:05.058Z,18.27
2023-06-07T21:36:31.692Z,18.23
2023-06-07T21:38:58.382Z,18.18
2023-06-07T21:41:26.857Z,18.14
2023-06-07T21:43:53.493Z,18.06
2023-06-07T21:46:20.143Z,17.95
2023-06-07T21:48:46.961Z,17.93
2023-06-07T21:51:14.672Z,17.82
2023-06-07T21:53:41.635Z,17.79
2023-06-07T21:56:08.423Z,17.74
2023-06-07T21:58:35.396Z,17.65
2023-06-07T22:01:02.056Z,17.64
2023-06-07T22:03:28.734Z,17.61
2023-06-07T22:05:55.196Z,17.50
2023-06-07T22:08:21.838Z,17.49
2023-06-07T22:10:48.345Z,17.47
2023-06-07T22:13:17.730Z,17.42
2023-06-07T22:15:45.500Z,17.35
2023-06-07T22:18:12.605Z,17.27
2023-06-07T22:20:41.275Z,17.07
2023-06-07T22:23:08.789Z,17.23
2023-06-07T22:25:41.080Z,17.14
2023-06-07T22:28:10.991Z,17.10
2023-06-07T22:30:40.384Z,17.10
2023-06-07T22:33:09.038Z,17.09
2023-06-07T22:35:35.997Z,17.05
2023-06-07T22:38:06.271Z,16.99
2023-06-07T22:40:34.509Z,16.96
2023-06-07T22:43:01.494Z,17.03
2023-06-07T22:45:29.397Z,17.00
2023-06-07T22:48:14.007Z,16.97
2023-06-07T22:50:42.980Z,17.05
2023-06-07T22:53:13.917Z,17.05
2023-06-07T22:55:41.741Z,17.10
2023-06-07T22:58:08.429Z,17.10
2023-06-07T23:00:36.084Z,17.05
2023-06-07T23:03:05.142Z,17.01
2023-06-07T23:05:31.871Z,17.08
2023-06-07T23:07:58.366Z,17.12
2023-06-07T23:10:36.317Z,17.06
2023-06-07T23:13:09.944Z,17.12
2023-06-07T23:15:42.203Z,17.09
2023-06-07T23:18:09.920Z,17.00
2023-06-07T23:20:36.476Z,16.95
2023-06-07T23:23:05.975Z,17.00
2023-06-07T23:25:32.512Z,16.89
2023-06-07T23:27:59.714Z,16.89
2023-06-07T23:30:27.236Z,16.76
2023-06-07T23:32:53.895Z,16.87
2023-06-07T23:35:21.210Z,16.77
2023-06-07T23:37:48.548Z,16.82
2023-06-07T23:40:18.697Z,16.82
2023-06-07T23:42:46.270Z,16.76
2023-06-07T23:45:13.682Z,16.70
2023-06-07T23:47:40.969Z,16.63
2023-06-07T23:50:09.182Z,16.53
2023-06-07T23:52:40.117Z,16.43
2023-06-07T23:55:06.802Z,16.33
2023-06-07T23:57:33.342Z,16.22
